Time;durP1;ratioP1;P1;durP2;ratioP2;P2;SDS_P1;SDS_P2;PMS_P1;PMS_P2;Temp;Humidity;BMP_temperature;BMP_pressure;BME280_temperature;BME280_humidity;BME280_pressure;Samples;Min_cycle;Max_cycle;Signal;HPM_P1;HPM_P2
2022/05/29 08:09:32;;;;;;;5.25;1.48;;;;;;;15.20;58.22;98651.53;5128198;27;20852;-83
2022/05/29 08:11:59;;;;;;;1.67;1.30;;;;;;;14.60;59.48;98643.88;5129788;27;20047;-83
2022/05/29 08:14:26;;;;;;;6.03;1.33;;;;;;;15.09;59.75;98644.91;5126593;27;20116;-84
2022/05/29 08:16:55;;;;;;;5.78;1.17;;;;;;;15.16;56.73;98650.28;5129326;27;20045;-84
2022/05/29 08:57:09;;;;;;;3.50;1.38;;;;;;;14.47;55.78;98645.66;5126704;28;20122;-82
2022/05/29 08:59:46;;;;;;;6.82;1.88;;;;;;;14.54;56.75;98628.34;5126711;28;20097;-83
2022/05/29 09:02:23;;;;;;;5.57;1.23;;;;;;;14.78;54.65;98629.44;5113919;28;20043;-83
2022/05/29 09:04:57;;;;;;;4.32;1.20;;;;;;;14.54;55.34;98628.34;5125723;27;20040;-83
2022/05/29 09:07:25;;;;;;;5.28;1.35;;;;;;;14.50;56.16;98645.22;5125325;27;20043;-83
2022/05/29 09:09:56;;;;;;;4.55;1.00;;;;;;;14.40;57.65;98628.47;5125197;27;20134;-86
2022/05/29 09:12:32;;;;;;;8.10;1.67;;;;;;;14.72;56.06;98638.53;5118482;28;20052;-83
2022/05/29 09:15:03;;;;;;;5.18;1.40;;;;;;;14.49;54.71;98621.66;5128045;28;21095;-82
2022/05/29 09:17:35;;;;;;;4.07;1.13;;;;;;;14.25;54.28;98630.69;5125292;27;20047;-87
2022/05/29 09:20:06;;;;;;;5.82;1.45;;;;;;;14.34;56.15;98629.34;5114799;27;20090;-83
2022/05/29 09:22:38;;;;;;;4.57;1.33;;;;;;;14.32;54.17;98594.03;5105630;28;20410;-88
2022/05/29 09:25:28;;;;;;;4.80;1.25;;;;;;;14.14;55.16;98610.38;5114804;28;20139;-89
2022/05/29 09:28:00;;;;;;;3.05;1.13;;;;;;;14.40;54.78;98628.47;5112561;28;20277;-83
2022/05/29 09:30:27;;;;;;;4.78;0.98;;;;;;;14.42;56.72;98618.16;5111315;28;20047;-84
2022/05/29 09:32:56;;;;;;;2.95;1.58;;;;;;;14.40;57.26;98614.78;5112700;28;20541;-84
2022/05/29 09:35:27;;;;;;;6.28;1.00;;;;;;;14.28;58.38;98639.28;5112337;28;20047;-83
2022/05/29 09:38:00;;;;;;;3.83;0.88;;;;;;;13.91;57.62;98639.13;5109900;28;20054;-87
2022/05/29 09:40:30;;;;;;;2.47;1.17;;;;;;;13.97;57.32;98612.78;5111200;28;20040;-84
2022/05/29 09:43:14;;;;;;;5.70;1.60;;;;;;;13.56;58.08;98625.84;5112966;28;20490;-88
2022/05/29 09:45:41;;;;;;;4.32;1.80;;;;;;;13.17;60.97;98632.28;5113106;28;20467;-89
2022/05/29 10:21:51;;;;;;;3.25;1.48;;;;;;;14.35;54.67;98611.91;5094795;28;20051;-90
2022/05/29 10:24:22;;;;;;;10.27;1.73;;;;;;;14.39;54.81;98647.81;5091831;28;20048;-88
2022/05/29 10:26:52;;;;;;;1.55;1.02;;;;;;;14.16;54.54;98630.94;5092547;28;20047;-86
2022/05/29 10:29:23;;;;;;;4.82;0.95;;;;;;;14.22;54.27;98612.81;5098676;28;20050;-87
2022/05/29 10:31:52;;;;;;;6.53;2.42;;;;;;;14.28;55.09;98625.59;5110725;28;20047;-88
2022/05/29 10:34:24;;;;;;;2.45;1.20;;;;;;;14.00;55.09;98617.84;5111482;28;20071;-86
2022/05/29 10:36:53;;;;;;;5.50;1.20;;;;;;;13.85;55.69;98604.47;5107203;28;20487;-83
2022/05/29 10:39:22;;;;;;;15.95;1.40;;;;;;;13.95;58.68;98634.88;5098688;28;20120;-86
2022/05/29 10:41:50;;;;;;;4.13;0.95;;;;;;;13.74;58.43;98610.63;5111235;27;20063;-85
2022/05/29 10:44:42;;;;;;;3.20;1.30;;;;;;;13.69;58.94;98610.47;5110778;28;20052;-89
2022/05/29 10:47:29;;;;;;;2.33;0.95;;;;;;;13.52;59.08;98610.97;5096120;28;20063;-89
2022/05/29 10:50:09;;;;;;;4.40;1.20;;;;;;;13.31;61.49;98647.56;5112285;28;20058;-87
2022/05/29 10:52:54;;;;;;;4.22;1.20;;;;;;;13.21;56.97;98642.53;5111208;28;20081;-89
2022/05/29 10:55:41;;;;;;;1.63;0.90;;;;;;;12.87;56.04;98641.81;5110910;28;20062;-86
2022/05/29 10:58:33;;;;;;;2.00;0.88;;;;;;;13.00;56.46;98637.38;5112304;28;20130;-93
2022/05/29 11:04:36;;;;;;;1.63;0.98;;;;;;;14.25;53.70;98636.16;5102611;28;20078;-89
2022/05/29 11:07:29;;;;;;;5.25;1.20;;;;;;;14.67;52.24;98615.41;5108966;28;20055;-85
2022/05/29 11:10:20;;;;;;;4.53;1.02;;;;;;;15.06;50.00;98633.59;5112061;28;20048;-84
2022/05/29 11:13:02;;;;;;;1.08;0.82;;;;;;;15.16;50.09;98639.34;5109890;28;20058;-86
2022/05/29 11:15:35;;;;;;;3.25;1.05;;;;;;;15.54;50.19;98636.38;5104814;28;20134;-87
2022/05/29 11:18:22;;;;;;;2.45;0.98;;;;;;;15.37;50.06;98618.88;5110988;28;20052;-84
2022/05/29 11:21:10;;;;;;;3.28;0.80;;;;;;;14.86;51.96;98615.47;5109153;28;20155;-86
2022/05/29 11:24:00;;;;;;;5.22;1.17;;;;;;;14.73;50.66;98629.28;5099822;28;20138;-84
2022/05/29 11:26:42;;;;;;;3.15;0.82;;;;;;;14.52;51.30;98614.91;5102826;28;20054;-85
2022/05/29 11:29:44;;;;;;;1.83;0.95;;;;;;;14.82;49.44;98614.25;5110205;28;20079;-86
2022/05/29 11:32:23;;;;;;;7.82;0.95;;;;;;;14.54;48.16;98626.44;5073770;28;20044;-82
2022/05/29 11:35:03;;;;;;;0.98;0.77;;;;;;;14.46;49.00;98624.81;5107338;28;20562;-84
2022/05/29 11:37:53;;;;;;;5.97;1.08;;;;;;;14.74;48.61;98623.56;5103215;28;20052;-86
2022/05/29 11:40:21;;;;;;;1.60;0.87;;;;;;;14.79;47.61;98623.72;5110057;28;20131;-83
2022/05/29 11:43:01;;;;;;;4.90;1.05;;;;;;;15.17;47.50;98624.59;5104207;28;20044;-85
2022/05/29 11:51:15;;;;;;;3.65;0.93;;;;;;;15.14;44.42;98608.63;5102591;28;20059;-86
2022/05/29 11:53:47;;;;;;;5.45;1.00;;;;;;;15.28;44.66;98620.25;5108390;28;20063;-86
2022/05/29 11:56:25;;;;;;;3.13;1.67;;;;;;;15.44;42.68;98614.16;5111160;28;20039;-85
2022/05/29 11:59:02;;;;;;;4.18;1.02;;;;;;;15.53;44.06;98607.28;5110943;28;20487;-85
2022/05/29 12:15:00;;;;;;;3.33;0.98;;;;;;;15.64;40.49;98605.69;5089532;28;20035;-85
2022/05/29 12:17:31;;;;;;;4.57;0.80;;;;;;;15.66;43.07;98600.00;5090753;28;20056;-87
2022/05/29 12:20:09;;;;;;;1.80;0.60;;;;;;;16.24;42.59;98598.50;5103769;28;20496;-87
2022/05/29 12:22:42;;;;;;;2.00;0.80;;;;;;;16.53;41.23;98594.03;5109539;28;20051;-86
2022/05/29 12:25:25;;;;;;;1.00;0.50;;;;;;;16.79;41.94;98592.69;5106258;28;20052;-87
2022/05/29 12:27:54;;;;;;;3.10;0.80;;;;;;;16.77;39.07;98572.03;5108580;28;20048;-85
2022/05/29 12:30:28;;;;;;;1.83;0.65;;;;;;;17.17;39.20;98577.63;5102714;28;20097;-85
2022/05/29 12:32:57;;;;;;;2.63;0.73;;;;;;;17.24;37.18;98571.19;5109406;28;20062;-86
2022/05/29 12:35:28;;;;;;;3.25;1.33;;;;;;;17.26;37.37;98583.59;5109506;28;20047;-85
2022/05/29 12:38:31;;;;;;;1.63;0.80;;;;;;;17.64;40.63;98556.56;5109951;28;20078;-87
2022/05/29 12:41:16;;;;;;;5.13;1.05;;;;;;;17.31;34.84;98571.88;5108801;28;20132;-89
2022/05/29 12:44:11;;;;;;;1.63;0.63;;;;;;;17.14;34.07;98558.06;5108974;28;20059;-86
2022/05/29 12:47:02;;;;;;;2.95;0.80;;;;;;;17.95;34.73;98574.50;5106619;28;20051;-87
2022/05/29 12:49:56;;;;;;;5.47;0.93;;;;;;;18.01;41.18;98578.19;5088976;28;20039;-88
2022/05/29 12:52:28;;;;;;;3.70;1.02;;;;;;;18.19;50.12;98568.88;5101465;28;20143;-85
2022/05/29 12:55:12;;;;;;;2.22;0.90;;;;;;;18.40;50.82;98579.13;5113445;28;20047;-88
2022/05/29 12:58:09;;;;;;;2.60;0.88;;;;;;;17.61;52.72;98579.06;5112343;28;20513;-88
2022/05/29 13:01:18;;;;;;;4.07;0.90;;;;;;;16.64;54.52;98562.16;5098488;28;20056;-88
2022/05/29 13:04:18;;;;;;;3.30;1.00;;;;;;;16.55;55.77;98586.38;5100304;28;20109;-89
2022/05/29 13:07:14;;;;;;;4.60;1.20;;;;;;;16.15;56.76;98569.75;5091331;28;20425;-88
2022/05/29 13:10:11;;;;;;;2.28;0.90;;;;;;;16.59;54.34;98583.97;5106035;28;20142;-88
2022/05/29 13:12:42;;;;;;;1.50;0.80;;;;;;;16.12;52.88;98572.97;5107840;28;20051;-88
2022/05/29 13:15:12;;;;;;;1.23;0.75;;;;;;;17.05;53.67;98576.81;5112277;28;20154;-88
2022/05/29 13:17:41;;;;;;;1.90;0.80;;;;;;;17.56;50.66;98567.97;5108544;28;20130;-88
2022/05/29 13:20:24;;;;;;;3.53;0.80;;;;;;;17.79;48.35;98567.03;5112567;28;20152;-88
2022/05/29 13:22:57;;;;;;;1.90;0.65;;;;;;;17.88;50.11;98576.53;5113062;28;20051;-88
2022/05/29 13:38:58;;;;;;;2.08;0.90;;;;;;;18.65;48.17;98555.00;5107723;28;20061;-87
2022/05/29 13:41:29;;;;;;;4.32;1.05;;;;;;;18.15;42.84;98538.25;5113508;28;20058;-88
2022/05/29 13:43:57;;;;;;;4.43;1.02;;;;;;;18.47;43.07;98526.69;5109821;28;20048;-89
2022/05/29 13:46:27;;;;;;;3.25;0.90;;;;;;;18.80;42.90;98557.97;5113223;28;20452;-88
2022/05/29 13:49:19;;;;;;;2.08;1.00;;;;;;;18.93;43.40;98548.56;5113103;27;20109;-89
2022/05/29 13:51:47;;;;;;;2.25;0.80;;;;;;;18.95;42.99;98518.81;5113216;27;20074;-88
2022/05/29 13:54:26;;;;;;;4.13;0.98;;;;;;;19.51;43.93;98537.97;5107584;27;20086;-90
2022/05/29 13:57:05;;;;;;;4.60;0.80;;;;;;;19.16;41.63;98530.13;5112804;28;20078;-90
2022/05/29 14:05:28;;;;;;;;;;;;;;;17.35;42.36;98548.34;5104349;28;20059;-88
2022/05/29 14:08:24;;;;;;;1.90;0.70;;;;;;;16.73;41.40;98557.97;5112447;28;19919;-86
2022/05/29 14:11:07;;;;;;;2.90;0.82;;;;;;;16.08;46.46;98554.25;5109007;28;20059;-85
2022/05/29 14:13:36;;;;;;;2.50;0.90;;;;;;;16.16;42.26;98544.84;5103329;28;20050;-84
2022/05/29 14:16:08;;;;;;;3.20;1.20;;;;;;;15.93;43.42;98553.88;5111878;28;20411;-89
2022/05/29 14:18:42;;;;;;;4.25;1.23;;;;;;;15.55;43.98;98561.34;5111565;28;20062;-84
2022/05/29 14:21:45;;;;;;;2.70;1.10;;;;;;;15.56;42.83;98568.47;5108957;28;20062;-88
2022/05/29 14:24:45;;;;;;;4.13;1.10;;;;;;;15.28;43.42;98558.13;5110443;28;20047;-86
2022/05/29 14:28:06;;;;;;;3.50;1.45;;;;;;;15.51;44.20;98562.03;5112773;28;20071;-87
2022/05/29 14:31:04;;;;;;;1.60;0.70;;;;;;;15.39;44.15;98556.50;5063836;27;20071;-88
2022/05/29 14:34:05;;;;;;;3.38;0.73;;;;;;;15.85;42.83;98551.44;5106202;27;20058;-90
2022/05/29 14:36:45;;;;;;;6.60;1.05;;;;;;;16.14;41.52;98565.34;5107781;28;20043;-85
2022/05/29 14:39:16;;;;;;;;;;;;;;;15.76;42.35;98553.66;5116469;28;20086;-85
2022/05/29 14:41:46;;;;;;;4.20;1.13;;;;;;;16.03;42.46;98545.06;5113575;28;19995;-83
2022/05/29 14:44:24;;;;;;;3.70;1.38;;;;;;;16.20;42.35;98540.56;5113840;27;20055;-88
2022/05/29 14:47:04;;;;;;;4.10;1.30;;;;;;;16.43;40.83;98545.22;5120326;27;20096;-86
2022/05/29 14:49:40;;;;;;;3.13;1.05;;;;;;;16.59;40.67;98551.06;5092975;28;20445;-84
2022/05/29 14:52:19;;;;;;;4.57;1.27;;;;;;;16.44;41.58;98548.81;5091486;28;20047;-84
2022/05/29 14:54:49;;;;;;;5.88;1.13;;;;;;;16.01;42.85;98553.53;5090623;28;20376;-86
2022/05/29 14:57:21;;;;;;;2.72;1.00;;;;;;;15.90;42.63;98541.47;5107239;27;20116;-85
2022/05/29 14:59:48;;;;;;;4.18;1.30;;;;;;;15.31;43.46;98537.63;5110241;28;20463;-86
2022/05/29 15:02:31;;;;;;;3.55;1.10;;;;;;;15.56;43.93;98549.28;5098078;28;20095;-91
2022/05/29 15:38:47;;;;;;;4.97;1.40;;;;;;;16.75;38.90;98481.72;5107042;27;20046;-93
2022/05/29 15:41:25;;;;;;;3.50;1.25;;;;;;;16.97;39.23;98503.09;5111008;28;20056;-90
2022/05/29 15:43:58;;;;;;;3.45;0.90;;;;;;;16.94;38.45;98484.34;5102079;28;20047;-88
2022/05/29 15:54:17;;;;;;;6.68;1.20;;;;;;;17.93;35.98;98480.44;5096055;28;20043;-96
2022/05/29 15:56:57;;;;;;;4.75;1.00;;;;;;;17.69;32.84;98488.81;5052824;28;20140;-86
2022/05/29 15:59:48;;;;;;;2.78;0.95;;;;;;;17.86;32.87;98494.31;5091292;28;20119;-89
2022/05/29 16:02:17;;;;;;;3.50;1.00;;;;;;;18.23;34.51;98495.75;5098484;28;20043;-86
2022/05/29 16:04:45;;;;;;;4.97;1.80;;;;;;;17.87;34.39;98506.97;5110290;28;20052;-84
2022/05/29 16:07:33;;;;;;;2.45;0.70;;;;;;;17.44;34.46;98488.34;5110163;28;20139;-85
2022/05/29 16:10:02;;;;;;;2.65;0.90;;;;;;;17.50;33.61;98499.16;5091384;28;20067;-86
2022/05/29 16:12:33;;;;;;;2.15;1.10;;;;;;;17.47;33.27;98482.34;5109073;28;20052;-85
2022/05/29 16:15:00;;;;;;;2.47;1.10;;;;;;;18.06;32.88;98468.25;5110725;27;20058;-87
2022/05/29 16:17:38;;;;;;;3.35;0.93;;;;;;;18.28;33.29;98479.34;5108932;28;20050;-89
2022/05/29 16:20:15;;;;;;;2.30;0.95;;;;;;;17.65;33.47;98479.38;5114284;28;20077;-92
2022/05/29 16:22:56;;;;;;;3.03;0.80;;;;;;;17.65;34.58;98470.31;5121432;27;20054;-88
2022/05/29 16:48:21;;;;;;;3.70;1.23;;;;;;;17.33;34.54;98484.56;5123076;27;20047;-92
2022/05/29 16:50:54;;;;;;;2.15;0.70;;;;;;;16.96;34.70;98474.78;5132550;27;20062;-89
2022/05/29 16:53:22;;;;;;;3.20;0.82;;;;;;;17.03;35.61;98469.16;5121377;28;20060;-91
2022/05/29 16:55:51;;;;;;;3.90;0.75;;;;;;;16.76;35.11;98483.41;5131471;27;20056;-87
2022/05/29 16:58:32;;;;;;;5.30;1.25;;;;;;;16.87;34.45;98475.41;5127937;27;20047;-90
2022/05/29 17:01:10;;;;;;;2.67;0.73;;;;;;;16.89;35.57;98473.25;5119851;28;20083;-89
2022/05/29 17:03:49;;;;;;;4.10;1.00;;;;;;;17.02;34.72;98483.13;5120482;28;20101;-90
2022/05/29 17:06:27;;;;;;;4.13;0.85;;;;;;;16.77;35.33;98489.72;5122487;27;20046;-90
2022/05/29 17:08:59;;;;;;;4.93;1.00;;;;;;;16.72;35.50;98459.41;5123303;28;20048;-91
2022/05/29 17:35:06;;;;;;;4.13;1.02;;;;;;;15.35;39.47;98489.56;5136541;27;20062;-90
2022/05/29 17:54:45;;;;;;;3.25;1.25;;;;;;;14.77;39.67;98456.22;5057747;27;20051;-91
2022/05/29 17:57:32;;;;;;;3.60;0.90;;;;;;;14.96;42.56;98464.41;5072231;27;20101;-90
2022/05/29 18:02:57;;;;;;;1.60;1.13;;;;;;;14.83;41.98;98471.72;5110140;27;20056;-90
2022/05/29 18:05:26;;;;;;;3.30;1.13;;;;;;;14.71;43.74;98456.28;5113239;28;20093;-90
2022/05/29 18:08:00;;;;;;;2.00;1.25;;;;;;;14.72;40.46;98477.94;5112992;27;20044;-89
2022/05/29 18:10:36;;;;;;;3.10;0.75;;;;;;;14.83;41.40;98484.56;5112981;28;20050;-90
2022/05/29 18:13:05;;;;;;;1.55;0.80;;;;;;;14.75;42.79;98447.38;5116849;27;20097;-90
2022/05/29 18:15:35;;;;;;;4.88;1.05;;;;;;;14.67;41.67;98444.97;5106062;28;20094;-90
2022/05/29 18:18:01;;;;;;;6.18;1.30;;;;;;;14.61;43.99;98457.66;5110784;28;20135;-90
2022/05/29 18:20:28;;;;;;;3.58;1.00;;;;;;;14.47;50.85;98467.06;5114933;28;20047;-90
2022/05/29 18:23:00;;;;;;;6.25;1.25;;;;;;;14.42;55.34;98459.56;5111418;28;20051;-90
2022/05/29 18:25:33;;;;;;;4.70;1.15;;;;;;;14.25;58.64;98453.81;5114359;28;20479;-89
2022/05/29 18:28:04;;;;;;;10.57;3.38;;;;;;;13.85;61.54;98451.50;5109392;28;20048;-90
2022/05/29 18:30:34;;;;;;;5.50;2.53;;;;;;;13.94;62.80;98466.53;5130222;27;20506;-90
2022/05/29 18:33:05;;;;;;;2.38;1.10;;;;;;;13.73;64.83;98475.94;5135050;27;20120;-90
2022/05/29 18:35:35;;;;;;;2.85;1.40;;;;;;;13.57;66.01;98452.75;5108274;27;20096;-89
2022/05/29 18:38:01;;;;;;;4.65;1.30;;;;;;;13.55;66.60;98462.22;5109103;28;20486;-91
2022/05/29 19:15:47;;;;;;;2.90;1.30;;;;;;;11.76;79.74;98468.91;5112606;28;20047;-90
2022/05/29 19:19:12;;;;;;;2.85;1.40;;;;;;;11.74;79.98;98481.88;5112921;28;20051;-89
2022/05/29 19:28:19;;;;;;;;;;;;;;;;;;;;;
2022/05/29 19:31:42;;;;;;;1.30;1.13;;;;;;;11.14;83.32;98460.88;5112654;28;20426;-88
